Time;durP1;ratioP1;P1;durP2;ratioP2;P2;SDS_P1;SDS_P2;PMS_P1;PMS_P2;Temp;Humidity;BMP_temperature;BMP_pressure;BME280_temperature;BME280_humidity;BME280_pressure;Samples;Min_cycle;Max_cycle;Signal;HPM_P1;HPM_P2
2024/03/08 00:01:35;;;;;;;0.50;0.30;;;26.90;1.00;;;;;;2611814;54;20421;-62
2024/03/08 00:04:01;;;;;;;0.50;0.30;;;26.80;1.00;;;;;;2610990;54;20402;-62
2024/03/08 00:06:27;;;;;;;0.50;0.30;;;26.70;1.00;;;;;;2610508;54;20456;-62
2024/03/08 00:08:53;;;;;;;0.50;0.30;;;26.60;1.00;;;;;;2612347;54;20306;-65
2024/03/08 00:11:18;;;;;;;0.50;0.30;;;26.50;1.00;;;;;;2613520;54;20657;-67
2024/03/08 00:13:44;;;;;;;3.37;3.07;;;26.40;1.00;;;;;;2611624;54;20196;-66
2024/03/08 00:16:10;;;;;;;0.50;0.20;;;26.40;1.00;;;;;;2611652;47;20169;-67
2024/03/08 00:18:36;;;;;;;0.57;0.30;;;26.30;1.00;;;;;;2612036;39;20900;-67
2024/03/08 00:21:02;;;;;;;0.50;0.20;;;26.30;1.00;;;;;;2611584;54;20306;-67
2024/03/08 00:23:28;;;;;;;0.50;0.30;;;26.30;1.00;;;;;;2611480;46;20976;-67
2024/03/08 00:25:55;;;;;;;0.50;0.30;;;26.20;1.00;;;;;;2609588;54;20793;-67
2024/03/08 00:28:21;;;;;;;0.50;0.27;;;26.20;1.00;;;;;;2612204;54;20956;-67
2024/03/08 00:30:47;;;;;;;0.50;0.30;;;26.10;1.00;;;;;;2611780;54;20435;-67
2024/03/08 00:33:12;;;;;;;0.50;0.30;;;26.10;1.00;;;;;;2613714;54;20225;-67
2024/03/08 00:35:38;;;;;;;0.50;0.30;;;26.00;1.00;;;;;;2613288;39;20952;-67
2024/03/08 00:38:04;;;;;;;0.60;0.30;;;26.00;1.00;;;;;;2611897;39;20660;-66
2024/03/08 00:40:29;;;;;;;0.53;0.30;;;26.00;1.00;;;;;;2612753;50;20180;-67
2024/03/08 00:42:55;;;;;;;0.60;0.40;;;25.90;1.00;;;;;;2610556;47;20173;-66
2024/03/08 00:45:22;;;;;;;0.53;0.20;;;25.90;1.00;;;;;;2612587;47;20207;-67
2024/03/08 00:47:47;;;;;;;0.50;0.30;;;25.90;1.00;;;;;;2613295;54;21540;-67
2024/03/08 00:50:13;;;;;;;0.50;0.30;;;25.90;1.00;;;;;;2612819;54;20414;-67
2024/03/08 00:52:38;;;;;;;0.63;0.50;;;25.80;1.00;;;;;;2614150;54;20173;-66
2024/03/08 00:55:04;;;;;;;0.60;0.30;;;25.80;1.00;;;;;;2609993;54;20155;-67
2024/03/08 00:57:30;;;;;;;0.60;0.30;;;25.80;1.00;;;;;;2613600;54;20186;-67
2024/03/08 00:59:56;;;;;;;0.60;0.30;;;25.70;1.00;;;;;;2611792;54;21050;-67
2024/03/08 01:02:23;;;;;;;0.50;0.30;;;25.60;1.00;;;;;;2606531;54;20207;-67
2024/03/08 01:04:49;;;;;;;0.50;0.30;;;25.60;1.00;;;;;;2610994;54;20858;-67
2024/03/08 01:07:15;;;;;;;0.60;0.30;;;25.60;1.00;;;;;;2612380;54;20405;-67
2024/03/08 01:09:40;;;;;;;0.50;0.30;;;25.50;1.00;;;;;;2613947;54;20405;-67
2024/03/08 01:12:07;;;;;;;0.57;0.27;;;25.50;1.00;;;;;;2612461;39;20824;-66
2024/03/08 01:14:33;;;;;;;0.60;0.30;;;25.60;1.00;;;;;;2611966;54;20160;-67
2024/03/08 01:16:59;;;;;;;1.73;1.63;;;25.50;1.00;;;;;;2611594;54;20501;-67
2024/03/08 01:19:24;;;;;;;0.60;0.30;;;25.50;1.00;;;;;;2612521;54;20434;-68
2024/03/08 01:21:51;;;;;;;0.60;0.30;;;25.50;1.00;;;;;;2611779;54;20402;-69
2024/03/08 01:24:16;;;;;;;0.60;0.33;;;25.40;1.00;;;;;;2611815;54;20502;-69
2024/03/08 01:26:42;;;;;;;0.60;0.30;;;25.50;1.00;;;;;;2613954;47;20422;-69
2024/03/08 01:29:08;;;;;;;0.57;0.30;;;25.40;1.00;;;;;;2610218;54;20157;-68
2024/03/08 01:31:33;;;;;;;0.50;0.30;;;25.40;1.00;;;;;;2612293;39;20602;-69
2024/03/08 01:33:59;;;;;;;10.13;4.90;;;25.40;1.00;;;;;;2612723;54;20180;-68
2024/03/08 01:36:25;;;;;;;0.60;0.30;;;25.30;1.00;;;;;;2613323;54;20196;-69
2024/03/08 01:38:51;;;;;;;0.50;0.30;;;25.30;1.00;;;;;;2613477;54;20162;-69
2024/03/08 01:41:17;;;;;;;0.53;0.30;;;25.30;1.00;;;;;;2613375;54;20428;-68
2024/03/08 01:43:44;;;;;;;3.03;2.53;;;25.30;1.00;;;;;;2613714;39;20889;-69
2024/03/08 01:46:12;;;;;;;0.50;0.23;;;25.20;1.00;;;;;;2613656;54;20172;-68
2024/03/08 01:48:38;;;;;;;0.50;0.20;;;25.30;1.00;;;;;;2612017;54;20394;-68
2024/03/08 01:51:05;;;;;;;0.60;0.30;;;25.20;1.00;;;;;;2612347;54;20406;-66
2024/03/08 01:53:32;;;;;;;0.50;0.30;;;25.20;1.00;;;;;;2612832;54;20433;-66
2024/03/08 01:55:59;;;;;;;0.50;0.20;;;25.10;1.00;;;;;;2611668;54;20390;-66
2024/03/08 01:58:28;;;;;;;3.53;3.33;;;25.10;1.00;;;;;;2613488;39;20824;-66
2024/03/08 02:00:55;;;;;;;0.50;0.20;;;25.10;1.00;;;;;;2611495;47;20429;-66
2024/03/08 02:03:22;;;;;;;0.60;0.30;;;25.10;1.00;;;;;;2610663;54;20414;-66
2024/03/08 02:05:48;;;;;;;0.60;0.30;;;25.10;1.00;;;;;;2610867;54;20518;-66
2024/03/08 02:08:14;;;;;;;0.60;0.40;;;25.10;1.00;;;;;;2612788;54;21495;-66
2024/03/08 02:10:47;;;;;;;0.60;0.30;;;25.00;1.00;;;;;;2612711;47;20428;-66
2024/03/08 02:13:12;;;;;;;2.70;2.50;;;25.00;1.00;;;;;;2611465;54;20145;-66
2024/03/08 02:15:54;;;;;;;0.60;0.30;;;25.00;1.00;;;;;;2612328;54;20413;-66
2024/03/08 02:18:20;;;;;;;0.60;0.30;;;25.00;1.00;;;;;;2611967;54;20144;-65
2024/03/08 02:20:47;;;;;;;0.50;0.30;;;24.90;1.00;;;;;;2611789;54;20496;-65
2024/03/08 02:23:14;;;;;;;0.60;0.30;;;24.90;1.00;;;;;;2612171;54;20520;-66
2024/03/08 02:25:42;;;;;;;0.50;0.30;;;24.90;1.00;;;;;;2613566;54;20426;-66
2024/03/08 02:28:10;;;;;;;0.50;0.20;;;24.90;1.00;;;;;;2611781;39;21193;-66
2024/03/08 02:30:36;;;;;;;0.60;0.30;;;24.90;1.00;;;;;;2612173;39;20786;-62
2024/03/08 02:33:02;;;;;;;0.60;0.30;;;24.90;1.00;;;;;;2609360;54;20464;-62
2024/03/08 02:35:27;;;;;;;0.60;0.30;;;24.90;1.00;;;;;;2611482;54;20197;-62
2024/03/08 02:37:53;;;;;;;0.60;0.30;;;24.90;1.00;;;;;;2611983;54;20767;-61
2024/03/08 02:40:19;;;;;;;0.50;0.30;;;24.80;1.00;;;;;;2612861;54;20151;-62
2024/03/08 02:42:44;;;;;;;0.60;0.50;;;24.80;1.00;;;;;;2613041;54;20270;-62
2024/03/08 02:45:10;;;;;;;0.60;0.30;;;24.80;1.00;;;;;;2612516;54;20649;-61
2024/03/08 02:47:36;;;;;;;0.60;0.30;;;24.80;1.00;;;;;;2612089;54;20164;-61
2024/03/08 02:50:03;;;;;;;0.60;0.30;;;24.70;1.00;;;;;;2611004;54;20168;-62
2024/03/08 02:52:29;;;;;;;0.50;0.20;;;24.80;1.00;;;;;;2611898;54;20432;-62
2024/03/08 02:54:54;;;;;;;0.57;0.30;;;24.80;1.00;;;;;;2612314;54;20421;-62
2024/03/08 02:57:20;;;;;;;0.53;0.30;;;24.70;1.00;;;;;;2612831;54;20235;-62
2024/03/08 02:59:45;;;;;;;0.50;0.20;;;24.70;1.00;;;;;;2612345;54;20215;-66
2024/03/08 03:02:11;;;;;;;0.60;0.30;;;24.70;1.00;;;;;;2612350;54;20936;-67
2024/03/08 03:04:40;;;;;;;0.60;0.30;;;24.70;1.00;;;;;;2611350;54;20184;-67
2024/03/08 03:07:06;;;;;;;0.57;0.30;;;24.70;1.00;;;;;;2610698;54;20336;-66
2024/03/08 03:09:32;;;;;;;0.50;0.30;;;24.70;1.00;;;;;;2612937;54;20422;-66
2024/03/08 03:11:58;;;;;;;0.60;0.40;;;24.70;1.00;;;;;;2612029;54;20153;-66
2024/03/08 03:14:26;;;;;;;0.60;0.50;;;24.70;1.00;;;;;;2610390;54;20408;-66
2024/03/08 03:16:52;;;;;;;1.53;1.43;;;24.60;1.00;;;;;;2611035;54;20403;-66
2024/03/08 03:19:17;;;;;;;0.57;0.30;;;24.60;1.00;;;;;;2612551;47;20421;-67
2024/03/08 03:21:43;;;;;;;0.60;0.30;;;24.60;1.00;;;;;;2612776;54;20173;-66
2024/03/08 03:24:10;;;;;;;0.70;0.70;;;24.60;1.00;;;;;;2611893;54;21031;-66
2024/03/08 03:26:38;;;;;;;0.50;0.30;;;24.60;1.00;;;;;;2612569;54;20672;-66
2024/03/08 03:29:06;;;;;;;0.60;0.30;;;24.60;1.00;;;;;;2612690;39;20767;-67
2024/03/08 03:31:32;;;;;;;0.60;0.30;;;24.60;1.00;;;;;;2612613;54;20524;-67
2024/03/08 03:34:03;;;;;;;0.60;0.30;;;24.60;1.00;;;;;;2612592;54;20455;-66
2024/03/08 03:36:33;;;;;;;0.50;0.30;;;24.60;1.00;;;;;;2613003;39;20856;-66
2024/03/08 03:39:12;;;;;;;0.60;0.30;;;24.60;1.00;;;;;;2613020;54;21014;-66
2024/03/08 03:41:38;;;;;;;0.57;0.30;;;24.60;1.00;;;;;;2612861;54;20819;-66
2024/03/08 03:44:06;;;;;;;0.60;0.30;;;24.60;1.00;;;;;;2612412;54;20983;-67
2024/03/08 03:46:32;;;;;;;0.50;0.30;;;24.60;1.00;;;;;;2611814;54;20415;-66
2024/03/08 03:48:58;;;;;;;0.60;0.30;;;24.60;1.00;;;;;;2613719;39;20961;-66
2024/03/08 03:51:24;;;;;;;0.60;0.30;;;24.60;1.00;;;;;;2613204;54;20548;-67
2024/03/08 03:53:50;;;;;;;0.50;0.30;;;24.60;1.00;;;;;;2612624;47;20174;-67
2024/03/08 03:56:15;;;;;;;0.60;0.30;;;24.60;1.00;;;;;;2612906;54;20140;-67
2024/03/08 03:58:42;;;;;;;0.60;0.30;;;24.60;1.00;;;;;;2613996;54;20156;-67
2024/03/08 04:01:09;;;;;;;0.87;0.87;;;24.60;1.00;;;;;;2613341;54;20196;-66
2024/03/08 04:03:35;;;;;;;0.60;0.30;;;24.50;1.00;;;;;;2612925;54;20406;-67
2024/03/08 04:06:01;;;;;;;0.50;0.30;;;24.50;1.00;;;;;;2612046;54;20399;-66
2024/03/08 04:08:27;;;;;;;0.50;0.30;;;24.50;1.00;;;;;;2613142;54;20398;-66
2024/03/08 04:10:53;;;;;;;0.57;0.30;;;24.50;1.00;;;;;;2612563;54;20420;-68
2024/03/08 04:13:20;;;;;;;0.50;0.30;;;24.50;1.00;;;;;;2613986;54;20182;-69
2024/03/08 04:15:48;;;;;;;0.50;0.30;;;24.50;1.00;;;;;;2612801;54;20984;-69
2024/03/08 04:18:14;;;;;;;1.10;1.00;;;24.50;1.00;;;;;;2613388;54;20489;-68
2024/03/08 04:20:40;;;;;;;0.60;0.40;;;24.50;1.00;;;;;;2613014;54;20420;-68
2024/03/08 04:23:06;;;;;;;0.50;0.30;;;24.50;1.00;;;;;;2612821;54;20397;-67
2024/03/08 04:25:31;;;;;;;5.60;4.20;;;24.40;1.00;;;;;;2612702;54;20403;-68
2024/03/08 04:27:57;;;;;;;0.50;0.30;;;24.40;1.00;;;;;;2613184;54;20425;-69
2024/03/08 04:30:24;;;;;;;0.53;0.30;;;24.40;1.00;;;;;;2613503;54;20493;-68
2024/03/08 04:32:49;;;;;;;0.60;0.30;;;24.40;1.00;;;;;;2611673;54;20151;-69
2024/03/08 04:35:15;;;;;;;0.60;0.30;;;24.40;1.00;;;;;;2613630;47;20437;-69
2024/03/08 04:37:41;;;;;;;0.60;0.30;;;24.40;1.00;;;;;;2613201;54;20202;-68
2024/03/08 04:40:07;;;;;;;0.60;0.40;;;24.30;1.00;;;;;;2613734;54;20171;-68
2024/03/08 04:42:34;;;;;;;0.60;0.30;;;24.30;1.00;;;;;;2612451;47;20164;-69
2024/03/08 04:45:00;;;;;;;0.60;0.30;;;24.30;1.00;;;;;;2612756;54;20474;-68
2024/03/08 04:47:25;;;;;;;1.03;0.93;;;24.30;1.00;;;;;;2613114;54;20436;-69
2024/03/08 04:49:51;;;;;;;0.60;0.30;;;24.30;1.00;;;;;;2613700;54;20250;-67
2024/03/08 04:52:17;;;;;;;0.60;0.40;;;24.30;1.00;;;;;;2613148;54;20159;-69
2024/03/08 04:54:44;;;;;;;0.50;0.20;;;24.20;1.00;;;;;;2613363;54;20187;-69
2024/03/08 04:57:10;;;;;;;0.60;0.30;;;24.20;1.00;;;;;;2613058;46;20176;-68
2024/03/08 04:59:36;;;;;;;0.60;0.30;;;24.20;1.00;;;;;;2612632;54;20413;-64
2024/03/08 05:02:02;;;;;;;0.60;0.40;;;24.20;1.00;;;;;;2612317;39;20743;-63
2024/03/08 05:04:29;;;;;;;0.60;0.30;;;24.10;1.00;;;;;;2612850;47;20420;-63
2024/03/08 05:06:55;;;;;;;0.60;0.30;;;24.10;1.00;;;;;;2611351;54;20396;-64
2024/03/08 05:09:21;;;;;;;0.60;0.30;;;24.20;1.00;;;;;;2613153;54;20433;-63
2024/03/08 05:11:47;;;;;;;0.60;0.30;;;24.20;1.00;;;;;;2612129;54;20621;-65
2024/03/08 05:14:16;;;;;;;0.60;0.30;;;24.20;1.00;;;;;;2612989;54;21233;-64
2024/03/08 05:16:43;;;;;;;0.60;0.30;;;24.10;1.00;;;;;;2612545;54;20408;-64
2024/03/08 05:19:08;;;;;;;0.60;0.30;;;24.00;1.00;;;;;;2613433;54;20397;-67
2024/03/08 05:21:34;;;;;;;0.60;0.30;;;24.00;1.00;;;;;;2613445;54;20391;-67
2024/03/08 05:24:00;;;;;;;0.60;0.30;;;24.00;1.00;;;;;;2612129;47;20193;-66
2024/03/08 05:26:25;;;;;;;0.60;0.30;;;24.00;1.00;;;;;;2612458;54;20149;-66
2024/03/08 05:28:51;;;;;;;0.70;0.50;;;24.00;1.00;;;;;;2613011;54;20680;-65
2024/03/08 05:31:22;;;;;;;0.60;0.30;;;24.00;1.00;;;;;;2611516;47;20170;-67
2024/03/08 05:33:49;;;;;;;0.60;0.33;;;24.00;1.00;;;;;;2612008;54;20257;-67
2024/03/08 05:36:16;;;;;;;0.60;0.30;;;24.00;1.00;;;;;;2612389;54;20429;-67
2024/03/08 05:38:43;;;;;;;1.60;1.50;;;24.00;1.00;;;;;;2612102;54;20416;-67
2024/03/08 05:41:11;;;;;;;0.60;0.30;;;24.00;1.00;;;;;;2613225;54;20438;-67
2024/03/08 05:43:38;;;;;;;0.60;0.30;;;24.00;1.00;;;;;;2611838;54;20542;-67
2024/03/08 05:46:07;;;;;;;0.60;0.30;;;23.90;1.00;;;;;;2611769;54;20407;-66
2024/03/08 05:48:33;;;;;;;4.10;3.07;;;23.80;1.00;;;;;;2612975;54;20425;-67
2024/03/08 05:51:01;;;;;;;0.60;0.30;;;23.80;1.00;;;;;;2612425;54;20422;-66
2024/03/08 05:53:27;;;;;;;0.60;0.30;;;23.80;1.00;;;;;;2611942;47;20193;-67
2024/03/08 05:55:54;;;;;;;0.80;0.60;;;23.80;1.00;;;;;;2613031;39;20842;-67
2024/03/08 05:58:19;;;;;;;0.60;0.30;;;23.80;1.00;;;;;;2612561;54;20228;-66
2024/03/08 06:00:46;;;;;;;0.70;0.60;;;23.80;1.00;;;;;;2609787;54;20434;-67
2024/03/08 06:03:11;;;;;;;0.60;0.40;;;23.80;1.00;;;;;;2611377;54;20156;-66
2024/03/08 06:05:37;;;;;;;0.60;0.30;;;23.80;1.00;;;;;;2610938;54;20389;-67
2024/03/08 06:08:07;;;;;;;0.60;0.30;;;23.70;1.00;;;;;;2612903;39;20555;-66
2024/03/08 06:10:33;;;;;;;1.47;1.37;;;23.70;1.00;;;;;;2609573;54;20406;-67
2024/03/08 06:12:59;;;;;;;0.70;0.67;;;23.70;1.00;;;;;;2608682;54;20530;-67
2024/03/08 06:15:25;;;;;;;0.60;0.30;;;23.70;1.00;;;;;;2608151;54;20156;-67
2024/03/08 06:17:52;;;;;;;0.60;0.30;;;23.70;1.00;;;;;;2608876;54;20446;-66
2024/03/08 06:20:18;;;;;;;0.60;0.30;;;23.90;1.00;;;;;;2609156;54;20172;-66
2024/03/08 06:22:44;;;;;;;0.60;0.30;;;24.10;1.00;;;;;;2609826;54;21055;-67
2024/03/08 06:25:14;;;;;;;0.60;0.30;;;24.30;1.00;;;;;;2609625;39;20359;-67
2024/03/08 06:27:42;;;;;;;0.60;0.30;;;24.50;1.00;;;;;;2612377;54;20405;-66
2024/03/08 06:30:09;;;;;;;0.60;0.30;;;24.60;1.00;;;;;;2612270;54;20434;-71
2024/03/08 06:32:35;;;;;;;0.53;0.30;;;24.70;1.00;;;;;;2612525;54;20409;-67
2024/03/08 06:35:05;;;;;;;0.60;0.30;;;24.80;1.00;;;;;;2612838;39;20795;-66
2024/03/08 06:37:34;;;;;;;0.60;0.30;;;24.90;1.00;;;;;;2611264;54;21040;-65
2024/03/08 06:40:01;;;;;;;0.60;0.30;;;25.00;1.00;;;;;;2610436;46;20411;-66
2024/03/08 06:42:28;;;;;;;0.60;0.30;;;25.10;1.00;;;;;;2612108;54;20430;-66
2024/03/08 06:44:55;;;;;;;0.60;0.30;;;25.20;1.00;;;;;;2608933;54;20489;-65
2024/03/08 06:47:22;;;;;;;0.60;0.30;;;25.40;1.00;;;;;;2609770;54;20413;-67
2024/03/08 06:49:49;;;;;;;1.00;0.93;;;25.50;1.00;;;;;;2607198;46;20447;-66
2024/03/08 06:52:15;;;;;;;0.60;0.30;;;25.50;1.00;;;;;;2608322;39;20918;-67
2024/03/08 06:54:40;;;;;;;0.60;0.30;;;25.40;1.00;;;;;;2608073;54;20414;-67
2024/03/08 06:57:06;;;;;;;0.60;0.30;;;25.10;1.00;;;;;;2611617;54;20251;-66
2024/03/08 06:59:32;;;;;;;0.60;0.30;;;24.90;1.00;;;;;;2609346;47;20201;-66
2024/03/08 07:01:59;;;;;;;0.60;0.30;;;24.80;1.00;;;;;;2609371;54;20168;-65
2024/03/08 07:04:28;;;;;;;0.60;0.20;;;24.90;1.00;;;;;;2610002;39;20805;-67
2024/03/08 07:06:54;;;;;;;0.60;0.30;;;25.00;1.00;;;;;;2610298;54;20405;-71
2024/03/08 07:09:20;;;;;;;0.60;0.30;;;25.10;1.00;;;;;;2612504;54;20425;-70
2024/03/08 07:11:46;;;;;;;0.60;0.30;;;25.20;1.00;;;;;;2612000;54;20200;-69
2024/03/08 07:14:12;;;;;;;0.60;0.30;;;25.20;1.00;;;;;;2610026;54;20245;-71
2024/03/08 07:16:39;;;;;;;1.63;1.47;;;25.30;1.00;;;;;;2609067;54;20438;-68
2024/03/08 07:19:05;;;;;;;0.60;0.40;;;25.40;1.00;;;;;;2609928;54;20167;-66
2024/03/08 07:21:31;;;;;;;0.60;0.30;;;25.40;1.00;;;;;;2610859;54;20426;-66
2024/03/08 07:26:25;;;;;;;0.60;0.30;;;25.20;1.00;;;;;;2609936;39;20701;-67
2024/03/08 07:28:51;;;;;;;0.60;0.30;;;25.10;1.00;;;;;;2611929;54;20436;-67
2024/03/08 07:31:26;;;;;;;0.60;0.30;;;24.70;1.00;;;;;;2611108;54;20154;-67
2024/03/08 07:33:53;;;;;;;0.60;0.30;;;24.50;1.00;;;;;;2613600;54;20149;-66
2024/03/08 07:36:19;;;;;;;0.60;0.30;;;24.40;1.00;;;;;;2611618;54;20446;-67
2024/03/08 07:38:46;;;;;;;0.60;0.30;;;24.30;1.00;;;;;;2608694;54;20418;-71
2024/03/08 07:41:13;;;;;;;0.70;0.67;;;24.20;1.00;;;;;;2611749;54;20406;-68
2024/03/08 07:43:38;;;;;;;2.53;1.53;;;24.10;1.00;;;;;;2609592;54;20962;-67
2024/03/08 07:46:04;;;;;;;0.60;0.30;;;24.10;1.00;;;;;;2609145;39;20673;-67
2024/03/08 07:48:30;;;;;;;0.60;0.30;;;24.10;1.00;;;;;;2611196;54;20162;-68
2024/03/08 07:50:56;;;;;;;0.60;0.30;;;24.00;1.00;;;;;;2609648;39;20467;-68
2024/03/08 07:53:24;;;;;;;0.60;0.40;;;24.00;1.00;;;;;;2610759;54;20418;-67
2024/03/08 07:55:50;;;;;;;0.60;0.30;;;23.90;1.00;;;;;;2612066;54;20452;-68
2024/03/08 07:58:17;;;;;;;0.60;0.30;;;24.00;1.00;;;;;;2612328;54;20420;-68
2024/03/08 08:00:42;;;;;;;1.10;1.00;;;23.90;1.00;;;;;;2611688;54;20156;-67
2024/03/08 08:03:08;;;;;;;0.60;0.40;;;23.90;1.00;;;;;;2610934;47;21442;-69
2024/03/08 08:05:35;;;;;;;0.60;0.30;;;23.90;1.00;;;;;;2610108;54;20217;-67
2024/03/08 08:08:06;;;;;;;0.60;0.30;;;23.90;1.00;;;;;;2610056;54;20197;-67
2024/03/08 08:10:35;;;;;;;0.60;0.30;;;23.80;1.00;;;;;;2613054;54;20892;-67
2024/03/08 08:13:03;;;;;;;0.60;0.30;;;23.90;1.00;;;;;;2611333;47;20423;-67
2024/03/08 08:15:29;;;;;;;0.60;0.30;;;23.90;1.00;;;;;;2611918;54;20430;-67
2024/03/08 08:17:54;;;;;;;0.60;0.30;;;23.90;1.00;;;;;;2613614;54;20940;-68
2024/03/08 08:20:21;;;;;;;0.60;0.30;;;23.80;1.00;;;;;;2612503;47;20544;-68
2024/03/08 08:22:48;;;;;;;0.60;0.30;;;23.90;1.00;;;;;;2609453;54;20234;-67
2024/03/08 08:25:20;;;;;;;0.60;0.30;;;23.90;1.00;;;;;;2612391;54;20403;-68
2024/03/08 08:27:45;;;;;;;0.60;0.30;;;24.00;1.00;;;;;;2611131;54;20393;-67
2024/03/08 08:30:12;;;;;;;0.60;0.30;;;24.00;1.00;;;;;;2612585;54;20859;-72
2024/03/08 08:32:42;;;;;;;0.60;0.30;;;23.90;1.00;;;;;;2613352;54;20609;-72
2024/03/08 08:35:12;;;;;;;0.60;0.30;;;23.90;1.00;;;;;;2611111;54;20867;-72
2024/03/08 08:37:39;;;;;;;0.60;0.30;;;23.90;1.00;;;;;;2613377;54;20398;-72
2024/03/08 08:40:09;;;;;;;0.60;0.30;;;23.90;1.00;;;;;;2612817;54;20971;-71
2024/03/08 08:42:36;;;;;;;0.60;0.30;;;23.90;1.00;;;;;;2611820;54;20404;-72
2024/03/08 08:45:01;;;;;;;3.77;2.33;;;23.90;1.00;;;;;;2612901;54;20427;-71
2024/03/08 08:47:28;;;;;;;1.00;0.93;;;24.00;1.00;;;;;;2613893;54;20407;-72
2024/03/08 08:49:54;;;;;;;0.60;0.30;;;24.00;1.00;;;;;;2613124;54;20202;-65
2024/03/08 08:52:21;;;;;;;0.60;0.40;;;24.00;1.00;;;;;;2613142;54;20412;-67
2024/03/08 08:54:48;;;;;;;0.60;0.30;;;24.00;1.00;;;;;;2610723;54;20428;-67
2024/03/08 08:57:14;;;;;;;0.60;0.30;;;24.00;1.00;;;;;;2613872;54;20434;-66
2024/03/08 08:59:40;;;;;;;0.60;0.30;;;24.00;1.00;;;;;;2610007;54;20402;-67
2024/03/08 09:02:06;;;;;;;0.60;0.30;;;24.00;1.00;;;;;;2610578;47;20166;-66
2024/03/08 09:04:32;;;;;;;0.60;0.30;;;24.10;1.00;;;;;;2603851;54;20152;-66
2024/03/08 09:06:58;;;;;;;0.60;0.30;;;24.20;1.00;;;;;;2607129;54;20402;-67
2024/03/08 09:09:25;;;;;;;0.60;0.30;;;24.30;1.00;;;;;;2608832;54;20151;-66
2024/03/08 09:11:51;;;;;;;0.60;0.30;;;24.40;1.00;;;;;;2606716;54;20171;-67
2024/03/08 09:14:17;;;;;;;0.60;0.30;;;24.50;1.00;;;;;;2609025;54;20421;-67
2024/03/08 09:16:42;;;;;;;0.60;0.20;;;24.60;1.00;;;;;;2609933;54;20145;-67
2024/03/08 09:19:10;;;;;;;0.60;0.30;;;24.70;1.00;;;;;;2607353;39;20623;-71
2024/03/08 09:21:36;;;;;;;0.60;0.20;;;24.80;1.00;;;;;;2609853;39;20568;-71
2024/03/08 09:24:02;;;;;;;0.60;0.30;;;24.90;1.00;;;;;;2610422;54;20878;-70
2024/03/08 09:26:28;;;;;;;0.60;0.30;;;25.00;1.00;;;;;;2611700;54;20153;-71
2024/03/08 09:28:54;;;;;;;0.60;0.40;;;25.10;1.00;;;;;;2612943;54;20197;-70
2024/03/08 09:31:21;;;;;;;0.60;0.20;;;25.30;1.00;;;;;;2613000;54;20215;-71
2024/03/08 09:33:46;;;;;;;0.57;0.30;;;25.40;1.00;;;;;;2612272;54;20408;-70
2024/03/08 09:36:14;;;;;;;1.30;1.20;;;25.50;1.00;;;;;;2612472;54;21276;-71
2024/03/08 09:38:39;;;;;;;1.03;0.93;;;25.60;1.00;;;;;;2613099;54;20258;-70
2024/03/08 09:41:06;;;;;;;0.80;0.57;;;25.60;1.00;;;;;;2612141;39;20801;-73
2024/03/08 09:43:32;;;;;;;0.60;0.30;;;25.70;1.00;;;;;;2611832;54;20409;-72
2024/03/08 09:45:58;;;;;;;0.60;0.30;;;25.80;1.00;;;;;;2612793;54;20401;-72
2024/03/08 09:48:24;;;;;;;0.60;0.30;;;25.90;1.00;;;;;;2612889;54;20388;-71
2024/03/08 09:50:49;;;;;;;0.60;0.30;;;25.90;1.00;;;;;;2613059;54;20157;-71
2024/03/08 09:53:16;;;;;;;0.70;0.50;;;25.90;1.00;;;;;;2612047;54;20390;-71
2024/03/08 09:55:44;;;;;;;0.60;0.30;;;25.90;1.00;;;;;;2613184;54;20139;-72
2024/03/08 10:00:44;;;;;;;0.60;0.30;;;26.00;1.00;;;;;;2611462;47;20398;-66
2024/03/08 10:03:10;;;;;;;0.60;0.30;;;26.10;1.00;;;;;;2609841;54;21313;-66
2024/03/08 10:05:36;;;;;;;0.60;0.30;;;26.10;1.00;;;;;;2612518;54;20482;-66
2024/03/08 10:08:02;;;;;;;0.60;0.30;;;26.10;1.00;;;;;;2612689;54;21133;-65
2024/03/08 10:10:28;;;;;;;0.60;0.30;;;26.20;1.00;;;;;;2612834;54;20420;-65
2024/03/08 10:12:55;;;;;;;0.60;0.30;;;26.20;1.00;;;;;;2612195;54;20474;-66
2024/03/08 10:15:21;;;;;;;0.60;0.30;;;26.20;1.00;;;;;;2612298;54;20141;-65
2024/03/08 10:17:46;;;;;;;0.60;0.20;;;26.20;1.00;;;;;;2612604;54;20907;-65
2024/03/08 10:20:19;;;;;;;0.60;0.30;;;26.30;1.00;;;;;;2611899;54;20159;-66
2024/03/08 10:22:45;;;;;;;0.60;0.30;;;26.30;1.00;;;;;;2612541;54;20150;-66
2024/03/08 10:25:13;;;;;;;0.60;0.20;;;26.30;1.00;;;;;;2612569;54;20535;-66
2024/03/08 10:27:40;;;;;;;0.60;0.30;;;26.40;1.00;;;;;;2612166;39;20829;-66
2024/03/08 10:30:19;;;;;;;0.60;0.40;;;26.40;1.00;;;;;;2612046;54;20534;-66
2024/03/08 10:32:45;;;;;;;1.10;0.97;;;26.40;1.00;;;;;;2612284;54;20403;-66
2024/03/08 10:35:12;;;;;;;0.60;0.20;;;26.50;1.00;;;;;;2612376;54;20428;-66
2024/03/08 10:37:46;;;;;;;0.60;0.20;;;26.50;1.00;;;;;;2613363;39;20616;-66
2024/03/08 10:40:19;;;;;;;0.60;0.30;;;26.50;1.00;;;;;;2612677;47;20411;-66
2024/03/08 10:42:55;;;;;;;0.60;0.30;;;26.50;1.00;;;;;;2613041;54;20371;-66
2024/03/08 10:45:42;;;;;;;0.57;0.27;;;26.40;1.00;;;;;;2612425;54;20415;-66
2024/03/08 10:48:27;;;;;;;0.60;0.30;;;26.40;1.00;;;;;;2611787;54;20476;-67
2024/03/08 10:50:53;;;;;;;0.60;0.30;;;26.30;1.00;;;;;;2612481;54;21030;-67
2024/03/08 10:53:22;;;;;;;0.60;0.30;;;26.20;1.00;;;;;;2611950;54;20404;-66
2024/03/08 10:55:53;;;;;;;0.60;0.20;;;26.20;1.00;;;;;;2612033;54;20209;-67
2024/03/08 10:58:21;;;;;;;0.60;0.30;;;26.30;1.00;;;;;;2612563;54;20396;-67
2024/03/08 11:00:49;;;;;;;0.60;0.30;;;26.30;1.00;;;;;;2611262;54;20402;-66
2024/03/08 11:03:44;;;;;;;0.50;0.30;;;26.30;1.00;;;;;;2611950;54;20401;-67
2024/03/08 11:06:22;;;;;;;0.60;0.30;;;26.30;1.00;;;;;;2612305;54;20440;-67
2024/03/08 11:08:50;;;;;;;0.60;0.30;;;26.30;1.00;;;;;;2612817;39;21017;-67
2024/03/08 11:11:34;;;;;;;0.60;0.30;;;26.30;1.00;;;;;;2612984;54;20427;-71
2024/03/08 11:14:01;;;;;;;0.60;0.30;;;26.30;1.00;;;;;;2612157;54;20975;-71
2024/03/08 11:16:27;;;;;;;0.50;0.27;;;26.30;1.00;;;;;;2612360;47;20433;-71
2024/03/08 11:19:10;;;;;;;0.60;0.30;;;26.40;1.00;;;;;;2612579;54;20407;-71
2024/03/08 11:21:39;;;;;;;0.60;0.30;;;26.40;1.00;;;;;;2612333;54;20314;-71
2024/03/08 11:24:16;;;;;;;0.50;0.30;;;26.40;1.00;;;;;;2611632;54;20404;-71
2024/03/08 11:26:42;;;;;;;0.60;0.30;;;26.40;1.00;;;;;;2612916;54;20402;-71
2024/03/08 11:29:30;;;;;;;0.60;0.30;;;26.40;1.00;;;;;;2612164;54;20437;-71
2024/03/08 11:32:11;;;;;;;0.60;0.30;;;26.40;1.00;;;;;;2610927;54;20425;-71
2024/03/08 11:34:59;;;;;;;0.50;0.20;;;26.30;1.00;;;;;;2612691;54;20432;-69
2024/03/08 11:37:27;;;;;;;0.60;0.30;;;26.20;1.00;;;;;;2611529;54;20975;-71
2024/03/08 11:40:01;;;;;;;0.60;0.30;;;26.30;1.00;;;;;;2611203;54;20402;-71
2024/03/08 11:42:27;;;;;;;0.60;0.30;;;26.40;1.00;;;;;;2612242;54;20395;-81
2024/03/08 11:44:53;;;;;;;0.60;0.20;;;26.30;1.00;;;;;;2612837;46;20447;-76
2024/03/08 11:47:21;;;;;;;4.33;4.20;;;25.30;1.00;;;;;;2611291;54;20672;-86
2024/03/08 11:49:49;;;;;;;6.50;6.30;;;25.10;1.00;;;;;;2612870;54;20406;-75
2024/03/08 11:52:17;;;;;;;21.37;20.53;;;25.10;1.00;;;;;;2612982;54;20402;-80
2024/03/08 11:54:51;;;;;;;17.60;17.00;;;25.10;1.00;;;;;;2614329;39;20883;-76
2024/03/08 11:57:18;;;;;;;16.73;16.13;;;25.20;1.00;;;;;;2613469;54;20423;-76
2024/03/08 11:59:55;;;;;;;16.57;15.97;;;25.20;1.00;;;;;;2613793;54;20414;-78
2024/03/08 12:02:20;;;;;;;3.10;3.00;;;25.30;1.00;;;;;;2612549;54;20427;-67
2024/03/08 12:04:55;;;;;;;3.17;3.07;;;25.10;1.00;;;;;;2613861;39;20504;-67
2024/03/08 12:07:21;;;;;;;3.23;3.13;;;24.30;1.00;;;;;;2613407;54;20146;-68
2024/03/08 12:10:17;;;;;;;2.90;2.80;;;23.70;1.00;;;;;;2610925;54;20971;-65
2024/03/08 12:12:48;;;;;;;2.60;2.50;;;23.30;1.00;;;;;;2609235;54;21279;-65
2024/03/08 12:15:15;;;;;;;2.37;2.27;;;23.10;1.00;;;;;;2609738;54;20403;-65
2024/03/08 12:17:44;;;;;;;2.27;2.17;;;22.80;1.00;;;;;;2609152;39;20816;-65
2024/03/08 12:20:32;;;;;;;2.53;2.43;;;22.80;1.00;;;;;;2609135;54;20433;-67
2024/03/08 12:22:58;;;;;;;2.13;2.03;;;23.30;1.00;;;;;;2610688;47;20444;-69
2024/03/08 12:25:31;;;;;;;2.30;2.20;;;23.70;1.00;;;;;;2610750;54;20411;-68
2024/03/08 12:28:07;;;;;;;2.13;2.03;;;24.00;1.00;;;;;;2610889;54;20441;-67
2024/03/08 12:30:33;;;;;;;3.67;3.58;;;24.20;1.00;;;;;;2610361;54;20439;-64
2024/03/08 12:33:00;;;;;;;12.53;12.13;;;24.40;1.00;;;;;;2611040;39;20527;-65
2024/03/08 12:35:28;;;;;;;4.47;4.37;;;24.80;1.00;;;;;;2611664;54;20437;-63
2024/03/08 12:37:55;;;;;;;4.00;3.90;;;25.30;1.00;;;;;;2612259;39;20578;-65
2024/03/08 12:40:34;;;;;;;4.17;4.07;;;25.50;1.00;;;;;;2612728;54;20957;-65
2024/03/08 12:43:01;;;;;;;4.23;4.13;;;25.60;1.00;;;;;;2609893;54;20399;-66
2024/03/08 12:45:26;;;;;;;3.67;3.58;;;25.60;1.00;;;;;;2609205;47;20415;-65
2024/03/08 12:47:56;;;;;;;3.70;3.60;;;25.70;1.00;;;;;;2608974;47;20168;-66
2024/03/08 12:50:22;;;;;;;3.10;3.00;;;25.70;1.00;;;;;;2609899;54;20161;-68
2024/03/08 12:52:49;;;;;;;2.87;2.77;;;25.70;1.00;;;;;;2612006;54;20488;-67
2024/03/08 12:55:16;;;;;;;2.90;2.80;;;25.60;1.00;;;;;;2610619;54;20407;-66
2024/03/08 12:57:42;;;;;;;2.83;2.73;;;25.60;1.00;;;;;;2611265;54;20399;-66
2024/03/08 13:00:12;;;;;;;3.00;2.90;;;25.70;1.00;;;;;;2613101;54;20994;-67
2024/03/08 13:02:39;;;;;;;2.80;2.70;;;25.70;1.00;;;;;;2609384;54;20407;-68
2024/03/08 13:05:05;;;;;;;2.93;2.83;;;25.70;1.00;;;;;;2611974;47;20889;-68